Time;durP1;ratioP1;P1;durP2;ratioP2;P2;SDS_P1;SDS_P2;PMS_P1;PMS_P2;Temp;Humidity;BMP_temperature;BMP_pressure;BME280_temperature;BME280_humidity;BME280_pressure;Samples;Min_cycle;Max_cycle;Signal;HPM_P1;HPM_P2
2021/12/20 00:01:19;;;;;;;3.42;2.42;;;;;;;3.47;84.04;100046.53;4420396;32;20149;-70
2021/12/20 00:03:47;;;;;;;3.92;2.42;;;;;;;3.52;83.97;100064.81;4420206;32;20621;-70
2021/12/20 00:06:14;;;;;;;3.78;2.40;;;;;;;3.46;84.18;100063.00;4420133;31;20144;-70
2021/12/20 00:08:41;;;;;;;3.95;2.55;;;;;;;3.46;84.22;100051.72;4421562;32;20423;-70
2021/12/20 00:11:09;;;;;;;5.10;3.08;;;;;;;3.39;84.59;100047.28;4422576;32;20089;-70
2021/12/20 00:13:36;;;;;;;4.57;2.90;;;;;;;3.29;85.05;100048.94;4422401;32;20120;-70
2021/12/20 00:16:03;;;;;;;3.60;2.80;;;;;;;3.32;84.94;100055.06;4422281;31;20511;-70
2021/12/20 00:18:30;;;;;;;2.60;1.87;;;;;;;3.39;84.62;100063.78;4422387;32;20086;-70
2021/12/20 00:20:57;;;;;;;7.18;2.87;;;;;;;3.45;84.33;100042.16;4422591;32;20093;-70
2021/12/20 00:23:24;;;;;;;3.70;2.33;;;;;;;3.54;83.98;100047.50;4422266;32;20498;-70
2021/12/20 00:25:52;;;;;;;5.25;2.60;;;;;;;3.64;83.41;100049.34;4422205;32;20128;-70
2021/12/20 00:28:22;;;;;;;3.95;3.08;;;;;;;3.56;83.66;100046.63;4422309;32;20631;-70
2021/12/20 00:30:49;;;;;;;4.35;2.85;;;;;;;3.65;83.43;100058.91;4422337;32;20082;-70
2021/12/20 00:33:17;;;;;;;3.65;2.58;;;;;;;3.77;82.78;100051.19;4422160;32;20093;-70
2021/12/20 00:35:46;;;;;;;3.65;2.47;;;;;;;3.80;82.73;100042.53;4422140;32;20109;-70
2021/12/20 00:41:02;;;;;;;3.15;2.20;;;;;;;3.77;83.11;100038.16;4422212;32;20094;-70
2021/12/20 00:43:29;;;;;;;3.10;2.55;;;;;;;3.84;82.86;100057.34;4422166;32;20097;-70
2021/12/20 00:45:56;;;;;;;2.42;2.03;;;;;;;3.86;82.98;100060.00;4422165;31;20131;-70
2021/12/20 00:48:26;;;;;;;2.28;1.95;;;;;;;3.92;82.60;100057.41;4422106;32;20116;-70
2021/12/20 00:50:54;;;;;;;2.15;1.92;;;;;;;4.10;81.70;100051.50;4422055;32;20418;-70
2021/12/20 00:53:22;;;;;;;4.07;2.65;;;;;;;4.08;81.79;100046.28;4422029;32;20185;-70
2021/12/20 00:55:49;;;;;;;2.03;1.83;;;;;;;4.19;81.44;100060.28;4421957;32;20097;-70
2021/12/20 00:58:17;;;;;;;3.15;1.92;;;;;;;4.28;80.78;100076.03;4422163;32;20086;-70
2021/12/20 01:00:47;;;;;;;2.10;1.92;;;;;;;4.37;80.25;100071.75;4421959;32;20093;-70
2021/12/20 01:03:19;;;;;;;1.90;1.80;;;;;;;4.34;80.46;100074.31;4421954;32;20146;-70
2021/12/20 01:05:47;;;;;;;2.80;1.27;;;;;;;4.29;80.42;100064.72;4422097;32;20123;-70
2021/12/20 01:08:15;;;;;;;1.60;1.50;;;;;;;4.27;80.31;100069.03;4421949;32;20112;-70
2021/12/20 01:10:46;;;;;;;1.62;1.37;;;;;;;4.24;80.43;100070.75;4421869;32;20181;-70
2021/12/20 01:13:15;;;;;;;2.12;1.92;;;;;;;4.20;80.64;100077.66;4422163;32;20150;-70
2021/12/20 01:15:50;;;;;;;2.83;1.85;;;;;;;4.16;80.76;100085.47;4421852;32;20152;-70
2021/12/20 01:18:20;;;;;;;1.60;1.10;;;;;;;4.09;80.98;100105.37;4421899;32;20161;-70
2021/12/20 01:20:49;;;;;;;2.00;1.50;;;;;;;4.10;81.11;100098.44;4421851;32;20115;-70
2021/12/20 01:23:17;;;;;;;2.15;1.50;;;;;;;4.09;81.09;100097.56;4421953;32;20160;-70
2021/12/20 01:25:45;;;;;;;3.75;1.30;;;;;;;4.07;81.32;100097.56;4421677;32;20109;-70
2021/12/20 01:28:12;;;;;;;1.42;1.00;;;;;;;4.05;81.53;100099.28;4421758;32;20346;-70
2021/12/20 01:30:41;;;;;;;1.23;1.10;;;;;;;3.98;81.98;100101.81;4421758;32;20098;-70
2021/12/20 01:33:09;;;;;;;1.67;1.10;;;;;;;3.95;82.28;100099.16;4421609;32;20180;-70
2021/12/20 01:35:37;;;;;;;2.00;1.70;;;;;;;3.97;82.27;100094.84;4421752;32;20090;-70
2021/12/20 01:38:05;;;;;;;1.75;1.55;;;;;;;3.84;82.97;100091.22;4421576;32;20111;-70
2021/12/20 01:40:35;;;;;;;2.33;1.25;;;;;;;3.85;83.30;100098.19;4421738;32;20093;-70
2021/12/20 01:43:09;;;;;;;1.42;1.23;;;;;;;3.78;84.01;100097.28;4421664;32;20139;-70
2021/12/20 01:45:36;;;;;;;2.45;1.40;;;;;;;3.70;84.85;100082.38;4421556;32;20117;-70
2021/12/20 01:48:15;;;;;;;1.52;1.42;;;;;;;3.61;85.56;100080.56;4421518;32;20142;-70
2021/12/20 01:53:14;;;;;;;4.87;1.67;;;;;;;3.48;86.12;100082.16;4421470;32;20182;-70
2021/12/20 01:55:42;;;;;;;1.42;1.25;;;;;;;3.40;86.35;100085.53;4421386;32;20156;-70
2021/12/20 01:58:12;;;;;;;1.27;1.15;;;;;;;3.33;86.90;100100.19;4421585;32;20112;-70
2021/12/20 02:03:25;;;;;;;3.58;1.98;;;;;;;3.37;86.98;100095.91;4421398;32;20097;-70
2021/12/20 02:05:56;;;;;;;4.10;1.95;;;;;;;3.26;87.61;100099.25;4421325;32;20152;-70
2021/12/20 02:08:26;;;;;;;3.20;1.92;;;;;;;3.23;88.12;100116.56;4421408;32;20074;-70
2021/12/20 02:11:12;;;;;;;1.42;1.20;;;;;;;3.29;88.11;100114.91;4421396;32;20074;-70
2021/12/20 02:13:41;;;;;;;1.80;1.70;;;;;;;3.25;88.50;100117.44;4421457;32;20089;-70
2021/12/20 02:16:08;;;;;;;1.27;1.10;;;;;;;3.17;88.98;100119.94;4421472;32;20471;-70
2021/12/20 02:18:36;;;;;;;1.12;1.02;;;;;;;3.22;88.83;100131.31;4421233;32;20090;-70
2021/12/20 02:21:04;;;;;;;2.28;1.50;;;;;;;3.24;88.67;100131.31;4421238;32;20161;-70
2021/12/20 02:23:32;;;;;;;3.75;1.35;;;;;;;3.21;88.74;100136.47;4421201;32;20192;-70
2021/12/20 02:26:00;;;;;;;1.37;1.30;;;;;;;3.16;88.82;100130.34;4421269;32;20089;-70
2021/12/20 02:28:35;;;;;;;1.50;1.40;;;;;;;3.15;88.83;100144.22;4420998;32;20447;-70
2021/12/20 02:39:44;;;;;;;1.15;1.15;;;;;;;3.02;88.82;100140.56;4357204;32;20708;-70
2021/12/20 02:42:16;;;;;;;1.08;0.98;;;;;;;2.99;88.38;100145.72;4357354;32;20507;-70
2021/12/20 02:45:10;;;;;;;1.20;1.10;;;;;;;2.90;88.28;100154.28;4390311;32;20409;-70
2021/12/20 02:47:40;;;;;;;1.00;0.82;;;;;;;2.91;87.80;100155.13;4421126;32;20124;-70
2021/12/20 02:50:08;;;;;;;1.12;1.08;;;;;;;2.84;88.02;100162.84;4420939;32;20089;-70
2021/12/20 02:52:36;;;;;;;1.40;0.57;;;;;;;2.69;88.59;100162.59;4420914;31;20443;-70
2021/12/20 02:55:05;;;;;;;2.17;1.12;;;;;;;2.71;88.47;100163.50;4420982;32;20121;-70
2021/12/20 02:57:34;;;;;;;1.12;0.73;;;;;;;2.54;89.24;100172.72;4420848;32;20507;-70
2021/12/20 03:00:05;;;;;;;1.42;0.70;;;;;;;2.52;89.46;100193.53;4421087;32;20093;-70
2021/12/20 03:02:32;;;;;;;0.80;0.80;;;;;;;2.46;89.71;100196.00;4420918;32;20502;-70
2021/12/20 03:05:00;;;;;;;1.05;0.90;;;;;;;2.44;89.78;100194.22;4421010;32;20484;-70
2021/12/20 03:07:28;;;;;;;0.50;0.50;;;;;;;2.30;90.20;100192.28;4420747;32;20509;-70
2021/12/20 03:10:02;;;;;;;1.20;0.70;;;;;;;2.21;90.71;100188.63;4420684;32;20441;-70
2021/12/20 03:12:32;;;;;;;4.22;0.60;;;;;;;2.17;90.63;100172.09;4420726;32;20108;-70
2021/12/20 03:15:10;;;;;;;1.27;0.70;;;;;;;2.22;90.21;100178.25;4420811;32;20354;-70
2021/12/20 03:17:40;;;;;;;4.75;0.60;;;;;;;2.11;90.51;100187.56;4420756;32;20449;-70
2021/12/20 03:20:08;;;;;;;1.67;0.93;;;;;;;2.07;90.37;100191.81;4420744;32;20199;-70
2021/12/20 03:22:35;;;;;;;0.98;0.60;;;;;;;2.05;89.87;100190.03;4420605;32;20112;-70
2021/12/20 03:25:02;;;;;;;0.90;0.73;;;;;;;2.05;89.25;100203.03;4420679;32;20105;-70
2021/12/20 03:27:30;;;;;;;3.60;0.70;;;;;;;2.05;88.97;100208.22;4420616;32;20127;-70
2021/12/20 03:29:59;;;;;;;3.70;0.80;;;;;;;1.94;89.29;100218.41;4420728;32;20108;-70
2021/12/20 03:32:26;;;;;;;4.75;1.10;;;;;;;1.95;88.95;100224.50;4420538;32;20112;-70
2021/12/20 03:34:54;;;;;;;0.55;0.55;;;;;;;1.92;88.91;100218.38;4420409;31;20460;-70
2021/12/20 03:37:21;;;;;;;0.98;0.62;;;;;;;1.72;89.40;100211.03;4420437;32;20102;-70
2021/12/20 03:39:48;;;;;;;0.65;0.60;;;;;;;1.72;89.23;100224.88;4420525;32;20426;-70
2021/12/20 03:42:18;;;;;;;0.93;0.90;;;;;;;1.83;88.37;100232.91;4420406;32;20089;-70
2021/12/20 03:44:48;;;;;;;0.93;0.75;;;;;;;1.79;88.23;100226.78;4420711;32;20098;-70
2021/12/20 03:47:15;;;;;;;0.68;0.68;;;;;;;1.68;88.60;100231.75;4420475;32;20124;-70
2021/12/20 03:49:43;;;;;;;1.10;1.00;;;;;;;1.58;88.77;100247.97;4420319;32;20459;-70
2021/12/20 03:52:11;;;;;;;0.88;0.70;;;;;;;1.58;88.54;100254.88;4420297;32;20460;-70
2021/12/20 03:54:39;;;;;;;1.40;0.75;;;;;;;1.48;88.92;100265.91;4420276;32;20499;-70
2021/12/20 03:57:06;;;;;;;1.30;0.85;;;;;;;1.47;88.94;100264.16;4420379;32;20093;-70
2021/12/20 03:59:36;;;;;;;3.12;0.88;;;;;;;1.51;88.63;100261.66;4420198;32;20098;-70
2021/12/20 04:02:05;;;;;;;3.30;1.15;;;;;;;1.42;88.89;100266.66;4420231;32;20089;-70
2021/12/20 04:04:33;;;;;;;1.83;1.20;;;;;;;1.47;88.62;100267.63;4420209;32;20511;-70
2021/12/20 04:07:00;;;;;;;2.40;1.10;;;;;;;1.38;88.84;100263.09;4420107;32;20101;-70
2021/12/20 04:09:27;;;;;;;2.28;1.60;;;;;;;1.19;89.71;100253.13;4420188;32;20089;-70
2021/12/20 04:11:54;;;;;;;1.80;1.70;;;;;;;1.08;90.38;100262.38;4420068;32;20109;-70
2021/12/20 04:14:21;;;;;;;1.33;0.88;;;;;;;1.18;89.66;100265.22;4420236;32;20093;-70
2021/12/20 04:16:49;;;;;;;2.67;0.82;;;;;;;1.23;89.54;100280.91;4419967;32;20156;-70
2021/12/20 04:19:16;;;;;;;0.85;0.82;;;;;;;1.26;89.23;100270.59;4420124;32;20141;-70
2021/12/20 04:21:43;;;;;;;0.70;0.70;;;;;;;1.19;89.39;100279.06;4419919;32;20169;-70
2021/12/20 04:24:10;;;;;;;1.65;0.82;;;;;;;1.06;89.91;100272.72;4419760;32;20449;-70
2021/12/20 04:26:38;;;;;;;1.90;1.33;;;;;;;0.94;90.48;100265.50;4419945;32;20177;-70
2021/12/20 04:29:05;;;;;;;1.62;0.90;;;;;;;0.79;90.86;100280.69;4419713;31;20421;-70
2021/12/20 04:31:35;;;;;;;0.85;0.85;;;;;;;0.76;91.16;100283.19;4419886;32;20409;-70
2021/12/20 04:34:03;;;;;;;3.10;1.60;;;;;;;0.91;90.01;100283.56;4419845;32;20390;-70
2021/12/20 04:36:33;;;;;;;2.55;1.20;;;;;;;0.74;90.42;100287.44;4419737;32;20161;-70
2021/12/20 04:39:01;;;;;;;1.60;1.50;;;;;;;0.64;91.13;100294.13;4419989;32;20464;-70
2021/12/20 04:41:29;;;;;;;1.77;1.10;;;;;;;0.72;90.32;100307.28;4419947;32;20118;-70
2021/12/20 04:43:56;;;;;;;1.33;1.23;;;;;;;0.40;91.62;100304.72;4419739;32;20146;-70
2021/12/20 04:46:23;;;;;;;3.70;2.00;;;;;;;0.28;92.49;100306.94;4419756;32;20521;-70
2021/12/20 04:48:51;;;;;;;4.72;1.52;;;;;;;0.52;91.10;100308.47;4419541;32;20185;-70
2021/12/20 04:51:18;;;;;;;3.80;1.40;;;;;;;0.53;90.83;100308.53;4405483;32;20085;-70
2021/12/20 04:53:45;;;;;;;3.87;1.60;;;;;;;0.52;90.35;100313.66;4420131;32;20790;-70
2021/12/20 04:56:13;;;;;;;1.87;1.52;;;;;;;0.18;91.70;100308.41;4422052;32;20114;-70
2021/12/20 04:58:40;;;;;;;1.70;1.60;;;;;;;0.10;92.12;100320.25;4421903;32;20120;-70
2021/12/20 05:01:07;;;;;;;1.35;1.17;;;;;;;0.23;91.44;100317.19;4421992;32;20157;-70
2021/12/20 05:03:34;;;;;;;3.78;1.67;;;;;;;0.35;90.68;100305.41;4422004;32;20089;-70
2021/12/20 05:06:04;;;;;;;1.95;1.45;;;;;;;0.31;90.42;100319.13;4424836;32;20179;-69
2021/12/20 05:08:45;;;;;;;1.85;1.40;;;;;;;0.24;90.42;100326.72;4431528;31;20084;-70
2021/12/20 05:11:12;;;;;;;1.50;1.40;;;;;;;0.32;89.75;100332.13;4437428;32;20614;-70
2021/12/20 05:13:40;;;;;;;2.75;1.75;;;;;;;0.32;89.54;100333.81;4437354;31;20140;-70
2021/12/20 05:16:10;;;;;;;1.77;1.35;;;;;;;0.28;89.42;100337.16;4437367;31;20161;-70
2021/12/20 05:18:37;;;;;;;2.53;1.33;;;;;;;0.27;89.35;100343.19;4437706;32;20410;-70
2021/12/20 05:21:04;;;;;;;2.17;1.52;;;;;;;0.22;89.29;100335.28;4437921;31;20149;-70
2021/12/20 05:23:31;;;;;;;1.58;1.48;;;;;;;0.37;88.32;100335.72;4437757;32;20089;-70
2021/12/20 05:25:59;;;;;;;3.10;1.77;;;;;;;0.36;88.04;100341.75;4437964;32;20096;-70
2021/12/20 05:28:26;;;;;;;1.95;1.65;;;;;;;0.31;88.03;100348.50;4437484;31;20205;-69
2021/12/20 05:30:53;;;;;;;1.30;1.20;;;;;;;0.33;87.65;100346.84;4437859;32;20426;-70
2021/12/20 05:33:22;;;;;;;4.97;2.03;;;;;;;0.29;87.82;100337.22;4437610;32;20638;-70
2021/12/20 05:35:50;;;;;;;5.03;1.30;;;;;;;0.37;86.96;100345.22;4436997;32;20149;-70
2021/12/20 05:38:19;;;;;;;2.15;1.50;;;;;;;0.36;86.29;100341.75;4437100;32;20144;-70
2021/12/20 05:40:47;;;;;;;3.53;1.58;;;;;;;0.36;86.01;100349.53;4437963;32;20495;-70
2021/12/20 05:43:17;;;;;;;2.05;1.62;;;;;;;0.40;85.49;100353.97;4437737;32;20162;-70
2021/12/20 05:45:44;;;;;;;2.35;1.70;;;;;;;0.40;85.04;100347.91;4437604;31;20102;-70
2021/12/20 05:48:11;;;;;;;3.30;1.65;;;;;;;0.39;84.55;100354.81;4437740;32;20081;-69
2021/12/20 05:50:38;;;;;;;2.85;1.37;;;;;;;0.45;84.24;100360.13;4437771;31;20094;-69
2021/12/20 05:53:06;;;;;;;2.65;1.70;;;;;;;0.36;84.29;100359.88;4437598;32;20145;-69
2021/12/20 05:55:33;;;;;;;4.53;1.60;;;;;;;0.34;84.25;100361.53;4436501;31;20796;-69
2021/12/20 05:58:00;;;;;;;3.47;1.85;;;;;;;0.35;83.96;100359.81;4436737;32;20161;-69
2021/12/20 06:00:27;;;;;;;4.65;1.42;;;;;;;0.31;83.76;100365.75;4436709;32;20094;-70
2021/12/20 06:02:54;;;;;;;4.32;2.12;;;;;;;0.32;83.45;100370.09;4436517;31;20165;-70
2021/12/20 06:05:22;;;;;;;2.37;1.42;;;;;;;0.38;83.00;100368.56;4435705;32;20123;-70
2021/12/20 06:07:49;;;;;;;1.98;1.52;;;;;;;0.40;82.81;100369.50;4436465;31;20104;-70
2021/12/20 06:10:18;;;;;;;2.40;1.60;;;;;;;0.34;82.79;100366.72;4433020;31;20193;-69
2021/12/20 06:12:46;;;;;;;1.33;1.23;;;;;;;0.40;82.24;100369.50;4428004;32;20109;-70
2021/12/20 06:15:14;;;;;;;1.25;1.05;;;;;;;0.38;82.17;100380.66;4428987;32;20116;-70
2021/12/20 06:17:42;;;;;;;3.28;1.75;;;;;;;0.46;81.41;100382.66;4409620;32;387783;-69
2021/12/20 06:20:12;;;;;;;2.40;1.98;;;;;;;0.39;81.48;100380.72;4432003;31;20156;-70
2021/12/20 06:22:40;;;;;;;8.23;1.67;;;;;;;0.29;81.84;100391.66;4431914;32;20119;-70
2021/12/20 06:25:08;;;;;;;4.35;1.45;;;;;;;0.33;81.22;100392.63;4421889;32;20761;-69
2021/12/20 06:27:36;;;;;;;2.85;1.77;;;;;;;0.35;81.10;100399.56;4421779;32;20108;-69
2021/12/20 06:30:08;;;;;;;1.45;1.02;;;;;;;0.33;80.91;100401.25;4420793;32;20143;-69
2021/12/20 06:32:38;;;;;;;4.75;1.23;;;;;;;0.31;80.87;100397.72;4431935;32;20116;-71
2021/12/20 06:35:25;;;;;;;1.12;1.10;;;;;;;0.28;80.68;100402.81;4430111;32;20089;-70
2021/12/20 06:38:00;;;;;;;4.40;1.62;;;;;;;0.43;80.15;100407.59;4436695;31;20128;-69
2021/12/20 06:40:30;;;;;;;2.87;1.73;;;;;;;0.35;80.17;100411.66;4423008;32;20089;-70
2021/12/20 06:42:58;;;;;;;1.35;1.00;;;;;;;0.34;80.22;100412.50;4437125;32;20093;-69
2021/12/20 06:45:26;;;;;;;3.58;1.48;;;;;;;0.44;79.45;100419.72;4422833;31;20106;-70
2021/12/20 06:47:53;;;;;;;2.47;1.40;;;;;;;0.55;78.91;100415.72;4431756;31;20093;-70
2021/12/20 06:50:20;;;;;;;3.05;1.37;;;;;;;0.50;79.17;100430.28;4421044;32;20138;-70
2021/12/20 06:52:50;;;;;;;2.25;1.37;;;;;;;0.57;78.86;100434.81;4429229;31;20101;-69
2021/12/20 06:55:17;;;;;;;5.70;1.48;;;;;;;0.61;78.92;100443.56;4424793;32;20112;-70
2021/12/20 06:57:45;;;;;;;4.05;1.55;;;;;;;0.55;79.04;100441.66;4427941;31;20708;-70
2021/12/20 07:00:12;;;;;;;1.45;1.27;;;;;;;0.50;79.30;100438.06;4422520;32;20097;-69
2021/12/20 07:02:39;;;;;;;5.03;2.00;;;;;;;0.55;78.88;100438.19;4428122;32;20101;-69
2021/12/20 07:05:08;;;;;;;2.20;1.50;;;;;;;0.52;79.23;100438.09;4425654;32;20105;-70
2021/12/20 07:07:35;;;;;;;3.03;1.60;;;;;;;0.55;78.79;100438.19;4428818;32;20425;-70
2021/12/20 07:10:05;;;;;;;8.38;1.48;;;;;;;0.57;78.66;100449.50;4428299;32;20196;-69
2021/12/20 07:12:37;;;;;;;2.50;0.95;;;;;;;0.71;77.62;100454.25;4427213;32;20500;-69
2021/12/20 07:15:06;;;;;;;4.57;2.35;;;;;;;0.78;77.02;100452.72;4434300;32;20173;-70
2021/12/20 07:17:34;;;;;;;2.08;1.67;;;;;;;0.70;77.03;100449.88;4430855;31;20495;-69
2021/12/20 07:20:01;;;;;;;2.22;1.37;;;;;;;0.82;76.58;100445.88;4419039;32;20529;-70
2021/12/20 07:22:28;;;;;;;6.12;1.80;;;;;;;0.77;76.68;100450.94;4427952;32;20511;-71
2021/12/20 07:24:55;;;;;;;3.42;1.70;;;;;;;0.83;75.94;100447.63;4435250;31;20463;-69
2021/12/20 07:27:22;;;;;;;2.80;1.75;;;;;;;0.87;76.14;100447.75;4435172;32;20162;-71
2021/12/20 07:29:50;;;;;;;6.70;1.92;;;;;;;0.97;75.49;100443.72;4422107;31;20094;-70
2021/12/20 07:32:17;;;;;;;3.20;1.08;;;;;;;1.09;74.34;100458.72;4427198;32;20097;-70
2021/12/20 07:34:44;;;;;;;4.28;1.58;;;;;;;1.16;73.22;100451.16;4417436;32;20436;-70
2021/12/20 07:37:11;;;;;;;1.67;0.90;;;;;;;1.21;73.45;100453.87;4419440;32;20508;-69
2021/12/20 07:39:39;;;;;;;3.65;1.62;;;;;;;1.28;72.82;100454.94;4433237;32;20093;-70
2021/12/20 07:42:07;;;;;;;2.78;1.23;;;;;;;1.26;73.13;100447.09;4434235;32;20606;-69
2021/12/20 07:44:35;;;;;;;3.78;1.67;;;;;;;1.36;73.23;100449.09;4431576;31;20105;-70
2021/12/20 07:47:03;;;;;;;2.58;1.55;;;;;;;1.35;73.83;100442.16;4427749;31;20113;-68
2021/12/20 07:49:30;;;;;;;8.05;1.83;;;;;;;1.35;73.92;100444.75;4428152;32;20097;-69
2021/12/20 07:51:57;;;;;;;5.12;1.73;;;;;;;1.44;73.12;100459.69;4435226;31;20746;-70
2021/12/20 07:54:25;;;;;;;3.08;1.23;;;;;;;1.55;73.01;100455.62;4436355;31;20470;-70
2021/12/20 07:56:57;;;;;;;3.45;1.50;;;;;;;1.67;71.87;100442.97;4435524;32;20069;-69
2021/12/20 07:59:24;;;;;;;9.23;1.65;;;;;;;1.74;71.85;100456.12;4435474;32;20156;-71
2021/12/20 08:01:51;;;;;;;3.70;1.25;;;;;;;1.82;71.57;100446.78;4435381;32;20188;-70
2021/12/20 08:04:21;;;;;;;3.50;1.58;;;;;;;1.86;71.38;100456.41;4435484;32;20172;-69
2021/12/20 08:06:49;;;;;;;1.37;1.27;;;;;;;2.01;71.02;100455.88;4435084;32;20111;-69
2021/12/20 08:09:17;;;;;;;1.75;0.98;;;;;;;2.05;70.74;100460.31;4435088;32;20161;-72
2021/12/20 08:11:44;;;;;;;2.03;1.23;;;;;;;2.14;70.86;100470.94;4433569;31;20431;-72
2021/12/20 08:14:11;;;;;;;3.70;1.83;;;;;;;2.11;71.57;100465.66;4429124;31;20358;-71
2021/12/20 08:16:39;;;;;;;1.05;0.98;;;;;;;2.07;71.86;100458.66;4428243;32;20152;-71
2021/12/20 08:19:06;;;;;;;3.33;1.62;;;;;;;2.17;70.46;100442.44;4427127;32;20848;-71
2021/12/20 08:21:33;;;;;;;2.47;1.40;;;;;;;2.23;70.94;100462.50;4435876;32;20127;-71
2021/12/20 08:24:03;;;;;;;0.75;0.62;;;;;;;2.27;70.89;100464.31;4436016;32;20204;-71
2021/12/20 08:26:31;;;;;;;4.03;1.15;;;;;;;2.31;70.99;100454.00;4436022;32;20731;-71
2021/12/20 08:28:58;;;;;;;3.47;1.17;;;;;;;2.28;69.77;100453.06;4436445;31;20085;-72
2021/12/20 08:31:25;;;;;;;1.50;0.90;;;;;;;2.22;69.85;100459.00;4437951;32;20101;-70
2021/12/20 08:33:54;;;;;;;1.73;0.80;;;;;;;2.36;69.34;100454.09;4436913;31;20127;-69
2021/12/20 08:36:22;;;;;;;2.10;1.20;;;;;;;2.36;67.80;100464.50;4436894;31;20434;-71
2021/12/20 08:38:49;;;;;;;2.03;1.00;;;;;;;2.36;67.77;100465.38;4437921;32;20085;-70
2021/12/20 08:41:17;;;;;;;2.80;1.55;;;;;;;2.42;66.98;100468.97;4434102;32;20506;-71
2021/12/20 08:43:44;;;;;;;2.20;0.73;;;;;;;2.43;67.27;100468.13;4426353;32;20828;-70
2021/12/20 08:46:13;;;;;;;1.17;0.82;;;;;;;2.47;66.66;100467.34;4427872;32;20093;-72
2021/12/20 08:48:41;;;;;;;1.35;0.88;;;;;;;2.53;66.43;100488.28;4429208;32;20443;-70
2021/12/20 08:51:14;;;;;;;4.47;0.85;;;;;;;2.60;66.05;100470.25;4425413;32;20584;-73
2021/12/20 08:53:41;;;;;;;2.67;1.00;;;;;;;2.59;66.08;100471.09;4422460;32;20750;-70
2021/12/20 08:56:09;;;;;;;0.93;0.60;;;;;;;2.59;65.66;100460.69;4423928;32;20726;-70
2021/12/20 08:58:36;;;;;;;2.00;0.75;;;;;;;2.61;65.67;100452.91;4407058;32;20133;-70
2021/12/20 09:01:03;;;;;;;2.35;0.90;;;;;;;2.62;65.20;100460.78;4422401;31;20109;-71
2021/12/20 09:03:31;;;;;;;2.15;0.65;;;;;;;2.67;65.03;100476.47;4436598;32;20101;-70
2021/12/20 09:05:58;;;;;;;1.10;0.95;;;;;;;2.80;64.63;100486.31;4420771;32;20791;-71
2021/12/20 09:08:26;;;;;;;3.42;1.10;;;;;;;2.89;64.88;100488.19;4435822;32;20093;-70
2021/12/20 09:10:53;;;;;;;2.12;1.17;;;;;;;2.87;63.99;100487.31;4432320;31;20119;-70
2021/12/20 09:13:20;;;;;;;5.03;1.62;;;;;;;3.00;64.80;100501.44;4428293;31;20105;-70
2021/12/20 09:15:47;;;;;;;4.53;1.73;;;;;;;3.16;64.84;100507.84;4425964;32;20449;-70
2021/12/20 09:18:15;;;;;;;1.30;0.82;;;;;;;3.28;63.26;100503.75;4433071;32;20102;-70
2021/12/20 09:20:42;;;;;;;15.20;8.75;;;;;;;3.15;62.74;100506.09;4424888;32;20104;-69
2021/12/20 09:23:12;;;;;;;12.23;5.62;;;;;;;3.18;62.69;100514.84;4434792;32;20102;-69
2021/12/20 09:25:43;;;;;;;4.85;3.15;;;;;;;3.29;62.36;100505.53;4423911;32;20503;-70
2021/12/20 09:28:12;;;;;;;2.35;0.82;;;;;;;3.45;62.45;100511.00;4429220;32;20090;-70
2021/12/20 09:30:43;;;;;;;1.50;0.77;;;;;;;3.44;61.05;100491.03;4425903;32;20437;-70
2021/12/20 09:33:12;;;;;;;1.80;1.00;;;;;;;3.58;60.80;100497.38;4427907;32;20162;-70
2021/12/20 09:35:39;;;;;;;1.48;1.37;;;;;;;3.56;59.59;100492.13;4422066;32;20153;-70
2021/12/20 09:38:10;;;;;;;1.73;0.85;;;;;;;3.70;59.95;100492.38;4427607;32;20089;-69
2021/12/20 09:40:51;;;;;;;0.55;0.55;;;;;;;3.90;60.42;100486.62;4426353;32;20116;-71
2021/12/20 09:43:21;;;;;;;12.40;1.90;;;;;;;3.84;58.89;100461.31;4423654;32;20484;-70
2021/12/20 09:45:49;;;;;;;2.50;0.80;;;;;;;3.89;58.49;100472.72;4427392;32;20085;-71
2021/12/20 09:48:16;;;;;;;0.45;0.45;;;;;;;3.92;58.68;100472.78;4435299;31;20121;-70
2021/12/20 09:50:43;;;;;;;0.50;0.50;;;;;;;3.87;57.67;100456.16;4437514;31;20254;-70
2021/12/20 09:53:11;;;;;;;0.50;0.50;;;;;;;3.97;58.11;100475.47;4437764;32;20123;-70
2021/12/20 09:55:39;;;;;;;2.40;0.30;;;;;;;3.99;58.29;100472.03;4437721;31;20081;-70
2021/12/20 09:58:06;;;;;;;1.67;0.70;;;;;;;4.00;58.22;100460.75;4437321;32;20408;-71
2021/12/20 10:00:34;;;;;;;1.73;0.82;;;;;;;3.87;58.97;100468.34;4437342;32;20089;-71
2021/12/20 10:03:03;;;;;;;2.40;0.93;;;;;;;3.95;58.82;100471.94;4437223;32;20109;-71
2021/12/20 10:05:31;;;;;;;2.58;1.27;;;;;;;3.99;58.44;100477.25;4432355;31;20475;-71
2021/12/20 10:08:02;;;;;;;1.30;0.62;;;;;;;4.07;58.23;100488.66;4429199;32;20090;-71
2021/12/20 10:10:42;;;;;;;2.12;0.95;;;;;;;4.10;58.11;100495.66;4421702;32;20158;-71
2021/12/20 10:13:30;;;;;;;1.12;0.70;;;;;;;4.13;58.63;100467.00;4421886;32;20093;-70
2021/12/20 10:16:00;;;;;;;0.75;0.57;;;;;;;4.06;57.96;100475.59;4422092;32;20097;-72
2021/12/20 10:18:31;;;;;;;1.02;0.88;;;;;;;4.16;57.73;100474.00;4427194;32;20165;-70
2021/12/20 10:21:01;;;;;;;1.37;0.65;;;;;;;4.45;57.61;100467.50;4423329;32;20126;-70
2021/12/20 10:23:31;;;;;;;3.12;0.70;;;;;;;5.03;55.15;100456.94;4429940;32;20125;-71
2021/12/20 10:26:12;;;;;;;1.67;0.80;;;;;;;5.56;53.69;100456.63;4419980;32;20133;-72
2021/12/20 10:28:43;;;;;;;0.90;0.65;;;;;;;6.12;53.30;100466.72;4427018;32;20093;-71
2021/12/20 10:31:16;;;;;;;1.75;0.77;;;;;;;6.37;51.03;100456.44;4421779;32;20120;-71
2021/12/20 10:33:59;;;;;;;0.80;0.68;;;;;;;6.16;51.12;100470.25;4421813;32;20144;-71
2021/12/20 10:36:27;;;;;;;1.50;0.73;;;;;;;6.25;51.58;100451.09;4421810;32;20081;-70
2021/12/20 10:38:57;;;;;;;5.53;0.93;;;;;;;6.26;51.00;100460.72;4421679;32;20150;-70
2021/12/20 10:41:34;;;;;;;1.45;0.88;;;;;;;6.31;50.44;100433.72;4421431;32;20093;-69
2021/12/20 10:44:17;;;;;;;2.80;0.80;;;;;;;6.23;50.92;100469.44;4425769;32;20162;-70
2021/12/20 10:46:58;;;;;;;2.65;1.00;;;;;;;6.40;50.86;100459.94;4422004;32;20077;-71
2021/12/20 10:49:28;;;;;;;1.17;1.00;;;;;;;6.54;50.91;100454.81;4421405;32;20173;-69
2021/12/20 10:51:56;;;;;;;2.08;0.93;;;;;;;6.95;49.14;100475.06;4421160;32;20538;-69
2021/12/20 10:54:30;;;;;;;1.23;0.65;;;;;;;6.67;49.68;100464.44;4421757;32;20093;-70
2021/12/20 10:57:01;;;;;;;1.10;0.85;;;;;;;6.75;49.80;100475.00;4421475;32;20081;-69
2021/12/20 10:59:30;;;;;;;3.55;0.98;;;;;;;6.92;49.43;100469.81;4421615;32;20089;-70
2021/12/20 11:04:59;;;;;;;6.62;1.12;;;;;;;6.99;50.24;100484.69;4421555;32;20162;-71
2021/12/20 11:10:01;;;;;;;6.90;1.05;;;;;;;7.17;49.67;100481.25;4427856;32;20503;-71
2021/12/20 11:12:31;;;;;;;2.80;0.90;;;;;;;6.55;50.56;100492.31;4421747;32;20161;-71
2021/12/20 11:15:03;;;;;;;1.50;1.40;;;;;;;6.25;52.40;100499.06;4421639;32;20146;-70
2021/12/20 11:17:30;;;;;;;4.50;1.02;;;;;;;6.18;53.16;100500.81;4421206;32;20077;-70
2021/12/20 11:19:58;;;;;;;8.68;3.03;;;;;;;6.48;52.37;100488.78;4422205;32;20112;-70
2021/12/20 11:22:29;;;;;;;3.12;1.55;;;;;;;7.01;50.90;100488.19;4427869;31;20759;-70
2021/12/20 11:25:00;;;;;;;2.15;1.27;;;;;;;8.59;47.87;100481.41;4421091;32;20153;-69
2021/12/20 11:27:39;;;;;;;3.47;1.20;;;;;;;8.00;47.48;100477.03;4421227;32;20104;-69
2021/12/20 11:30:10;;;;;;;0.60;0.60;;;;;;;7.35;49.98;100483.97;4421033;32;20094;-72
2021/12/20 11:32:39;;;;;;;1.05;0.70;;;;;;;6.56;51.36;100470.50;4421004;32;20128;-69
2021/12/20 11:35:13;;;;;;;0.70;0.70;;;;;;;6.82;50.51;100484.63;4421164;32;20385;-69
2021/12/20 11:37:40;;;;;;;2.65;1.05;;;;;;;6.96;48.94;100466.31;4421070;32;20085;-70
2021/12/20 11:40:10;;;;;;;2.87;0.85;;;;;;;7.52;47.40;100468.25;4420746;32;20165;-70
2021/12/20 11:42:38;;;;;;;2.67;1.00;;;;;;;8.08;47.63;100467.41;4423577;32;20509;-70
2021/12/20 11:45:08;;;;;;;2.17;1.30;;;;;;;8.66;45.28;100460.34;4428261;32;20218;-71
2021/12/20 11:47:56;;;;;;;1.52;0.88;;;;;;;9.21;44.55;100463.63;4422578;32;20085;-70
2021/12/20 11:50:34;;;;;;;1.25;1.12;;;;;;;8.91;44.43;100467.28;4421296;32;20140;-70
2021/12/20 11:53:09;;;;;;;1.87;0.70;;;;;;;8.42;46.19;100480.56;4420427;32;20145;-70
2021/12/20 11:55:39;;;;;;;12.37;1.08;;;;;;;8.98;45.09;100491.81;4419403;32;20118;-70
2021/12/20 11:58:25;;;;;;;1.85;1.35;;;;;;;9.36;44.04;100503.88;4424650;32;20516;-71
2021/12/20 12:00:58;;;;;;;4.95;1.10;;;;;;;7.93;47.13;100503.28;4421656;32;20092;-71
2021/12/20 12:03:34;;;;;;;1.30;1.20;;;;;;;8.54;46.17;100501.53;4430755;32;20184;-70
2021/12/20 12:06:07;;;;;;;1.67;0.95;;;;;;;7.89;47.10;100503.28;4428946;32;20093;-71